Time;durP1;ratioP1;P1;durP2;ratioP2;P2;SDS_P1;SDS_P2;PMS_P1;PMS_P2;Temp;Humidity;BMP_temperature;BMP_pressure;BME280_temperature;BME280_humidity;BME280_pressure;Samples;Min_cycle;Max_cycle;Signal;HPM_P1;HPM_P2
2023/07/11 00:00:28;;;;;;;;;;;21.70;99.90;;;;;;5043486;28;20004;-69
2023/07/11 00:02:55;;;;;;;;;;;21.70;99.90;;;;;;5043759;28;19988;-69
2023/07/11 00:05:22;;;;;;;;;;;21.70;99.90;;;;;;5043846;28;19952;-68
2023/07/11 00:07:48;;;;;;;;;;;21.70;99.90;;;;;;5043959;28;19921;-68
2023/07/11 00:10:18;;;;;;;;;;;21.60;99.90;;;;;;5042944;28;21569;-69
2023/07/11 00:12:45;;;;;;;;;;;21.60;99.90;;;;;;5043449;28;19988;-69
2023/07/11 00:15:13;;;;;;;;;;;21.60;99.90;;;;;;5043641;28;20001;-69
2023/07/11 00:17:40;;;;;;;;;;;21.60;99.90;;;;;;5043748;28;19928;-68
2023/07/11 00:20:08;;;;;;;;;;;21.60;99.90;;;;;;5043239;28;19984;-69
2023/07/11 00:22:34;;;;;;;;;;;21.40;99.90;;;;;;5043568;28;19925;-69
2023/07/11 00:25:01;;;;;;;;;;;21.40;99.90;;;;;;5043900;28;19952;-67
2023/07/11 00:27:29;;;;;;;;;;;21.30;99.90;;;;;;5043612;28;19929;-68
2023/07/11 00:29:56;;;;;;;;;;;21.30;99.90;;;;;;5023305;28;19922;-68
2023/07/11 00:32:23;;;;;;;;;;;21.20;99.90;;;;;;5023705;28;19928;-68
2023/07/11 00:34:49;;;;;;;;;;;21.20;99.90;;;;;;5023526;28;19928;-69
2023/07/11 00:37:16;;;;;;;;;;;21.10;99.90;;;;;;5023758;28;19988;-69
2023/07/11 00:39:43;;;;;;;;;;;21.10;99.90;;;;;;5023750;28;19984;-70
2023/07/11 00:42:10;;;;;;;;;;;21.10;99.90;;;;;;5039085;28;19920;-69
2023/07/11 00:44:51;;;;;;;;;;;21.00;99.90;;;;;;5043462;28;19952;-68
2023/07/11 00:47:18;;;;;;;;;;;20.90;99.90;;;;;;5043139;28;19988;-68
2023/07/11 00:49:45;;;;;;;;;;;20.80;99.90;;;;;;5043213;28;19952;-68
2023/07/11 00:52:13;;;;;;;;;;;20.80;99.90;;;;;;5039328;28;20102;-69
2023/07/11 00:54:40;;;;;;;;;;;20.80;99.90;;;;;;5043313;28;19921;-69
2023/07/11 00:57:09;;;;;;;;;;;20.80;99.90;;;;;;5043352;28;19921;-69
2023/07/11 00:59:35;;;;;;;;;;;20.80;99.90;;;;;;5043007;28;19921;-69
2023/07/11 01:02:06;;;;;;;;;;;20.80;99.90;;;;;;5042731;28;19956;-69
2023/07/11 01:04:33;;;;;;;;;;;20.80;99.90;;;;;;5043291;28;20045;-68
2023/07/11 01:06:59;;;;;;;;;;;20.70;99.90;;;;;;5042899;28;19921;-69
2023/07/11 01:09:26;;;;;;;;;;;20.70;99.90;;;;;;5042999;28;19928;-69
2023/07/11 01:11:55;;;;;;;;;;;20.70;99.90;;;;;;5042730;28;19921;-68
2023/07/11 01:14:23;;;;;;;;;;;20.60;99.90;;;;;;5043070;28;20237;-69
2023/07/11 01:16:49;;;;;;;;;;;20.60;99.90;;;;;;5042886;28;19921;-68
2023/07/11 01:19:17;;;;;;;;;;;20.60;99.90;;;;;;5042854;28;19996;-69
2023/07/11 01:21:45;;;;;;;;;;;20.50;99.90;;;;;;5042202;28;20224;-69
2023/07/11 01:24:12;;;;;;;;;;;20.50;99.90;;;;;;5046654;28;19921;-69
2023/07/11 01:26:39;;;;;;;;;;;20.50;99.90;;;;;;5046527;28;19921;-68
2023/07/11 01:29:06;;;;;;;;;;;20.50;99.90;;;;;;5046840;28;19956;-69
2023/07/11 01:31:34;;;;;;;;;;;20.40;99.90;;;;;;5046013;28;19967;-69
2023/07/11 01:34:01;;;;;;;;;;;20.50;99.90;;;;;;5046781;28;19927;-68
2023/07/11 01:36:28;;;;;;;;;;;20.40;99.90;;;;;;5046500;28;20209;-68
2023/07/11 01:38:56;;;;;;;;;;;20.30;99.90;;;;;;5046754;28;19988;-69
2023/07/11 01:41:23;;;;;;;;;;;20.30;99.90;;;;;;5045950;28;19925;-69
2023/07/11 01:43:50;;;;;;;;;;;20.20;99.90;;;;;;5046596;28;19928;-69
2023/07/11 01:46:17;;;;;;;;;;;20.20;99.90;;;;;;5046498;28;19959;-68
2023/07/11 01:48:43;;;;;;;;;;;20.20;99.90;;;;;;5046483;28;19921;-69
2023/07/11 01:51:19;;;;;;;;;;;20.20;99.90;;;;;;5043414;28;19940;-69
2023/07/11 01:53:46;;;;;;;;;;;20.10;99.90;;;;;;5046134;28;19921;-68
2023/07/11 01:56:14;;;;;;;;;;;20.00;99.90;;;;;;5046468;28;20192;-69
2023/07/11 01:58:40;;;;;;;;;;;20.00;99.90;;;;;;5046506;28;19984;-69
2023/07/11 02:01:11;;;;;;;;;;;19.90;99.90;;;;;;5044711;28;19928;-68
2023/07/11 02:03:37;;;;;;;;;;;19.90;99.90;;;;;;5046355;28;19984;-69
2023/07/11 02:06:04;;;;;;;;;;;19.90;99.90;;;;;;5045854;28;20233;-69
2023/07/11 02:08:31;;;;;;;;;;;19.80;99.90;;;;;;5045931;28;19921;-69
2023/07/11 02:10:59;;;;;;;;;;;19.80;99.90;;;;;;5044653;28;19984;-69
2023/07/11 02:13:27;;;;;;;;;;;19.70;99.90;;;;;;5046111;28;19984;-69
2023/07/11 02:15:54;;;;;;;;;;;19.70;99.90;;;;;;5045510;28;20007;-68
2023/07/11 02:18:20;;;;;;;;;;;19.70;99.90;;;;;;5045826;28;19996;-69
2023/07/11 02:20:47;;;;;;;;;;;19.70;99.90;;;;;;5025271;28;19921;-68
2023/07/11 02:23:14;;;;;;;;;;;19.60;99.90;;;;;;5025626;28;20273;-69
2023/07/11 02:25:41;;;;;;;;;;;19.60;99.90;;;;;;5025615;28;19928;-69
2023/07/11 02:28:08;;;;;;;;;;;19.50;99.90;;;;;;5026125;28;19921;-68
2023/07/11 02:30:36;;;;;;;;;;;19.50;99.90;;;;;;5024849;28;19976;-69
2023/07/11 02:33:03;;;;;;;;;;;19.40;99.90;;;;;;5025558;28;19921;-69
2023/07/11 02:35:30;;;;;;;;;;;19.40;99.90;;;;;;5024828;28;19928;-68
2023/07/11 02:37:56;;;;;;;;;;;19.40;99.90;;;;;;5025975;28;20090;-69
2023/07/11 02:40:23;;;;;;;;;;;19.40;99.90;;;;;;5024988;28;20228;-68
2023/07/11 02:42:50;;;;;;;;;;;19.30;99.90;;;;;;5025825;28;19996;-68
2023/07/11 02:45:16;;;;;;;;;;;19.30;99.90;;;;;;5025035;28;19921;-69
2023/07/11 02:47:44;;;;;;;;;;;19.30;99.90;;;;;;5025494;28;19980;-68
2023/07/11 02:50:11;;;;;;;;;;;19.30;99.90;;;;;;5024603;28;20277;-68
2023/07/11 02:52:38;;;;;;;;;;;19.30;99.90;;;;;;5040776;28;19984;-68
2023/07/11 02:55:06;;;;;;;;;;;19.20;99.90;;;;;;5044832;28;20204;-69
2023/07/11 02:57:32;;;;;;;;;;;19.20;99.90;;;;;;5045189;28;20102;-69
2023/07/11 02:59:59;;;;;;;;;;;19.20;99.90;;;;;;5044803;28;19984;-69
2023/07/11 03:02:26;;;;;;;;;;;19.10;99.90;;;;;;5045112;28;20377;-68
2023/07/11 03:04:54;;;;;;;;;;;19.10;99.90;;;;;;5044828;28;19928;-69
2023/07/11 03:07:20;;;;;;;;;;;19.10;99.90;;;;;;5045073;28;19957;-69
2023/07/11 03:09:47;;;;;;;;;;;19.10;99.90;;;;;;5044909;28;19984;-68
2023/07/11 03:12:13;;;;;;;;;;;19.10;99.90;;;;;;5044151;28;19984;-68
2023/07/11 03:14:40;;;;;;;;;;;19.10;99.90;;;;;;5044684;28;20493;-69
2023/07/11 03:17:07;;;;;;;;;;;19.00;99.90;;;;;;5044547;28;19984;-70
2023/07/11 03:19:33;;;;;;;;;;;19.00;99.90;;;;;;5044733;28;19928;-69
2023/07/11 03:22:01;;;;;;;;;;;19.00;99.90;;;;;;5043973;28;19921;-69
2023/07/11 03:24:28;;;;;;;;;;;19.00;99.90;;;;;;5044668;28;20155;-68
2023/07/11 03:26:54;;;;;;;;;;;19.00;99.90;;;;;;5044744;28;19927;-69
2023/07/11 03:29:21;;;;;;;;;;;18.90;99.90;;;;;;5044533;28;19952;-69
2023/07/11 03:31:48;;;;;;;;;;;18.90;99.90;;;;;;5043840;28;19983;-69
2023/07/11 03:34:14;;;;;;;;;;;18.80;99.90;;;;;;5044299;28;19984;-68
2023/07/11 03:36:41;;;;;;;;;;;18.80;99.90;;;;;;5044303;28;19921;-69
2023/07/11 03:39:09;;;;;;;;;;;18.70;99.90;;;;;;5044533;28;19979;-69
2023/07/11 03:41:36;;;;;;;;;;;18.70;99.90;;;;;;5043680;28;20016;-70
2023/07/11 03:44:03;;;;;;;;;;;18.70;99.90;;;;;;5044259;28;19988;-69
2023/07/11 03:46:30;;;;;;;;;;;18.70;99.90;;;;;;5043048;28;20251;-70
2023/07/11 03:48:58;;;;;;;;;;;18.70;99.90;;;;;;5044178;28;19921;-69
2023/07/11 03:51:28;;;;;;;;;;;18.70;99.90;;;;;;5041068;28;19969;-69
2023/07/11 03:53:54;;;;;;;;;;;18.70;99.90;;;;;;5044377;28;19943;-70
2023/07/11 03:56:22;;;;;;;;;;;18.70;99.90;;;;;;5043859;28;19984;-69
2023/07/11 03:58:49;;;;;;;;;;;18.70;99.90;;;;;;5044059;28;19921;-69
2023/07/11 04:01:16;;;;;;;;;;;18.70;99.90;;;;;;5023095;28;19928;-69
2023/07/11 04:03:43;;;;;;;;;;;18.60;99.90;;;;;;5024059;28;20267;-69
2023/07/11 04:06:10;;;;;;;;;;;18.60;99.90;;;;;;5023890;28;19922;-69
2023/07/11 04:08:37;;;;;;;;;;;18.60;99.90;;;;;;5024034;28;19922;-69
2023/07/11 04:11:04;;;;;;;;;;;18.60;99.90;;;;;;5032037;28;19964;-69
2023/07/11 04:13:32;;;;;;;;;;;18.60;99.90;;;;;;5043539;28;19957;-69
2023/07/11 04:15:59;;;;;;;;;;;18.60;99.90;;;;;;5043666;28;19921;-69
2023/07/11 04:18:26;;;;;;;;;;;18.60;99.90;;;;;;5043699;28;19927;-69
2023/07/11 04:20:52;;;;;;;;;;;18.60;99.90;;;;;;5042694;28;20185;-69
2023/07/11 04:23:19;;;;;;;;;;;18.60;99.90;;;;;;5043493;28;19984;-69
2023/07/11 04:25:45;;;;;;;;;;;18.60;99.90;;;;;;5043605;28;19953;-69
2023/07/11 04:28:12;;;;;;;;;;;18.60;99.90;;;;;;5043378;28;19984;-69
2023/07/11 04:30:40;;;;;;;;;;;18.60;99.90;;;;;;5042767;28;19928;-69
2023/07/11 04:33:07;;;;;;;;;;;18.60;99.90;;;;;;5043567;28;19921;-69
2023/07/11 04:35:33;;;;;;;;;;;18.70;99.90;;;;;;5043408;28;20086;-69
2023/07/11 04:38:00;;;;;;;;;;;18.70;99.90;;;;;;5040854;28;20181;-69
2023/07/11 04:40:29;;;;;;;;;;;18.80;99.90;;;;;;5040164;28;19990;-69
2023/07/11 04:42:59;;;;;;;;;;;18.80;99.90;;;;;;5042057;28;19921;-69
2023/07/11 04:45:25;;;;;;;;;;;18.90;99.90;;;;;;5043432;28;19984;-69
2023/07/11 04:47:53;;;;;;;;;;;18.90;99.90;;;;;;5043518;28;19921;-69
2023/07/11 04:50:20;;;;;;;;;;;18.90;99.90;;;;;;5042752;28;19921;-70
2023/07/11 04:52:47;;;;;;;;;;;18.90;99.90;;;;;;5043316;28;19988;-70
2023/07/11 04:55:14;;;;;;;;;;;19.00;99.90;;;;;;5043358;28;19992;-70
2023/07/11 04:57:40;;;;;;;;;;;19.00;99.90;;;;;;5044578;28;19956;-70
2023/07/11 05:00:07;;;;;;;;;;;19.10;99.90;;;;;;5046845;28;19984;-70
2023/07/11 05:02:34;;;;;;;;;;;19.10;99.90;;;;;;5047377;28;19920;-70
2023/07/11 05:05:02;;;;;;;;;;;19.20;99.90;;;;;;5047384;28;19921;-70
2023/07/11 05:07:29;;;;;;;;;;;19.20;99.90;;;;;;5047413;28;19927;-70
2023/07/11 05:09:55;;;;;;;;;;;19.30;99.90;;;;;;5047126;28;19921;-69
2023/07/11 05:12:22;;;;;;;;;;;19.40;99.90;;;;;;5047129;28;20169;-70
2023/07/11 05:14:49;;;;;;;;;;;19.40;99.90;;;;;;5047310;28;19957;-69
2023/07/11 05:17:15;;;;;;;;;;;19.50;99.90;;;;;;5047180;28;19984;-69
2023/07/11 05:19:42;;;;;;;;;;;19.50;99.90;;;;;;5046769;28;19921;-70
2023/07/11 05:22:10;;;;;;;;;;;19.60;99.90;;;;;;5046131;28;20200;-70
2023/07/11 05:24:37;;;;;;;;;;;19.60;99.90;;;;;;5046800;28;19921;-70
2023/07/11 05:27:04;;;;;;;;;;;19.70;99.90;;;;;;5046971;28;19984;-69
2023/07/11 05:29:30;;;;;;;;;;;19.80;99.90;;;;;;5046537;28;19927;-69
2023/07/11 05:31:57;;;;;;;;;;;19.80;99.90;;;;;;5046178;28;19921;-74
2023/07/11 05:34:23;;;;;;;;;;;20.00;99.90;;;;;;5047029;28;20237;-70
2023/07/11 05:36:52;;;;;;;;;;;20.10;99.90;;;;;;5043855;28;19984;-70
2023/07/11 05:39:20;;;;;;;;;;;20.20;99.90;;;;;;5046251;28;19951;-69
2023/07/11 05:41:49;;;;;;;;;;;20.20;99.90;;;;;;5042181;28;19953;-69
2023/07/11 05:44:16;;;;;;;;;;;20.20;99.90;;;;;;5042962;28;19984;-69
2023/07/11 05:46:43;;;;;;;;;;;20.40;99.90;;;;;;5046513;28;20204;-70
2023/07/11 05:49:10;;;;;;;;;;;20.50;99.90;;;;;;5046566;28;19921;-69
2023/07/11 05:51:36;;;;;;;;;;;20.60;99.90;;;;;;5045427;28;19925;-70
2023/07/11 05:54:03;;;;;;;;;;;20.70;99.90;;;;;;5046008;28;19928;-69
2023/07/11 05:56:31;;;;;;;;;;;20.80;99.90;;;;;;5046325;28;19921;-69
2023/07/11 05:58:59;;;;;;;;;;;20.90;99.90;;;;;;5046452;28;19927;-69
2023/07/11 06:01:28;;;;;;;;;;;21.10;99.90;;;;;;5043019;28;19983;-69
2023/07/11 06:04:03;;;;;;;;;;;21.20;99.90;;;;;;5045911;28;19927;-69
2023/07/11 06:06:30;;;;;;;;;;;21.30;99.90;;;;;;5045980;28;19921;-69
2023/07/11 06:08:57;;;;;;;;;;;21.40;99.90;;;;;;5045267;28;20331;-70
2023/07/11 06:11:23;;;;;;;;;;;21.50;99.90;;;;;;5045380;28;19988;-69
2023/07/11 06:13:51;;;;;;;;;;;21.60;99.90;;;;;;5046044;28;19994;-69
2023/07/11 06:16:19;;;;;;;;;;;21.70;99.90;;;;;;5045552;28;19991;-69
2023/07/11 06:18:47;;;;;;;;;;;21.80;99.90;;;;;;5045576;28;19921;-69
2023/07/11 06:21:14;;;;;;;;;;;21.80;99.90;;;;;;5044931;28;20170;-69
2023/07/11 06:23:41;;;;;;;;;;;21.90;99.90;;;;;;5045592;28;19988;-69
2023/07/11 06:26:08;;;;;;;;;;;22.00;99.90;;;;;;5038695;28;19927;-70
2023/07/11 06:28:35;;;;;;;;;;;22.10;99.90;;;;;;5030424;28;20004;-69
2023/07/11 06:31:03;;;;;;;;;;;22.20;99.90;;;;;;5042444;28;20263;-70
2023/07/11 06:33:29;;;;;;;;;;;22.30;99.90;;;;;;5042650;28;20432;-69
2023/07/11 06:35:56;;;;;;;;;;;22.40;99.90;;;;;;5036373;28;19921;-69
2023/07/11 06:38:23;;;;;;;;;;;22.60;99.90;;;;;;5044957;28;19927;-70
2023/07/11 06:40:50;;;;;;;;;;;22.70;99.90;;;;;;5044703;28;19935;-69
2023/07/11 06:43:17;;;;;;;;;;;22.80;99.90;;;;;;5045330;28;19921;-69
2023/07/11 06:45:45;;;;;;;;;;;22.90;99.90;;;;;;5045081;28;20124;-70
2023/07/11 06:48:13;;;;;;;;;;;22.90;99.90;;;;;;5045365;28;20162;-69
2023/07/11 06:50:39;;;;;;;;;;;23.00;99.90;;;;;;5044538;28;19921;-70
2023/07/11 06:53:06;;;;;;;;;;;23.10;99.90;;;;;;5044969;28;20185;-71
2023/07/11 06:55:33;;;;;;;;;;;23.30;99.90;;;;;;5044631;28;20001;-70
2023/07/11 06:57:59;;;;;;;;;;;23.40;99.90;;;;;;5045019;28;19921;-69
2023/07/11 07:00:26;;;;;;;;;;;23.50;99.90;;;;;;5029974;28;19993;-70
2023/07/11 07:02:53;;;;;;;;;;;23.60;99.90;;;;;;5025145;28;19921;-69
2023/07/11 07:05:21;;;;;;;;;;;23.80;99.90;;;;;;5025102;28;19922;-69
2023/07/11 07:07:47;;;;;;;;;;;24.00;99.90;;;;;;5025126;28;19952;-69
2023/07/11 07:10:14;;;;;;;;;;;24.10;99.90;;;;;;5024083;28;20227;-69
2023/07/11 07:12:41;;;;;;;;;;;24.30;99.90;;;;;;5024662;28;20004;-70
2023/07/11 07:15:08;;;;;;;;;;;24.50;99.90;;;;;;5024927;28;19922;-70
2023/07/11 07:17:35;;;;;;;;;;;24.50;99.90;;;;;;5024857;28;20299;-69
2023/07/11 07:20:01;;;;;;;;;;;24.60;99.90;;;;;;5031483;28;19921;-69
2023/07/11 07:22:29;;;;;;;;;;;24.70;99.90;;;;;;5043536;28;19927;-70
2023/07/11 07:24:56;;;;;;;;;;;24.80;99.90;;;;;;5043879;28;20358;-69
2023/07/11 07:27:22;;;;;;;;;;;25.00;99.90;;;;;;5044459;28;19980;-70
2023/07/11 07:29:49;;;;;;;;;;;25.10;99.90;;;;;;5030888;28;19981;-70
2023/07/11 07:32:16;;;;;;;;;;;25.10;99.90;;;;;;5043805;28;20020;-70
2023/07/11 07:34:42;;;;;;;;;;;25.20;99.90;;;;;;5044241;28;20252;-69
2023/07/11 07:37:09;;;;;;;;;;;25.30;99.90;;;;;;5044251;28;19956;-69
2023/07/11 07:39:39;;;;;;;;;;;25.40;99.90;;;;;;5040750;28;20085;-70
2023/07/11 07:42:07;;;;;;;;;;;25.40;99.90;;;;;;5041287;28;19921;-70
2023/07/11 07:44:33;;;;;;;;;;;25.50;99.90;;;;;;5044103;28;19928;-69
2023/07/11 07:47:00;;;;;;;;;;;25.50;99.90;;;;;;5044144;28;19963;-70
2023/07/11 07:49:27;;;;;;;;;;;25.50;99.90;;;;;;5043966;28;19963;-69
2023/07/11 07:51:54;;;;;;;;;;;25.50;99.90;;;;;;5043230;28;19989;-70
2023/07/11 07:54:21;;;;;;;;;;;25.60;99.90;;;;;;5042862;28;19992;-70
2023/07/11 07:56:49;;;;;;;;;;;25.70;99.90;;;;;;5043719;28;19921;-69
2023/07/11 07:59:21;;;;;;;;;;;25.80;99.90;;;;;;5040648;28;19921;-69
2023/07/11 08:01:48;;;;;;;;;;;25.90;99.90;;;;;;5040318;28;19952;-70
2023/07/11 08:04:14;;;;;;;;;;;26.10;99.90;;;;;;5043570;28;19928;-69
2023/07/11 08:06:41;;;;;;;;;;;26.20;99.90;;;;;;5043788;28;19971;-70
2023/07/11 08:09:08;;;;;;;;;;;26.40;99.90;;;;;;5043640;28;19952;-69
2023/07/11 08:11:36;;;;;;;;;;;26.40;99.90;;;;;;5042517;28;19921;-72
2023/07/11 08:14:04;;;;;;;;;;;26.50;99.90;;;;;;5042020;28;19989;-70
2023/07/11 08:16:31;;;;;;;;;;;26.50;99.90;;;;;;5043556;28;19959;-69
2023/07/11 08:18:58;;;;;;;;;;;26.60;99.90;;;;;;5043730;28;19984;-70
2023/07/11 08:21:25;;;;;;;;;;;26.60;99.90;;;;;;5043073;28;19935;-70
2023/07/11 08:23:53;;;;;;;;;;;26.70;99.90;;;;;;5039856;28;19921;-70
2023/07/11 08:26:21;;;;;;;;;;;26.80;99.90;;;;;;5043452;28;19943;-69
2023/07/11 08:28:47;;;;;;;;;;;26.90;99.90;;;;;;5043106;28;19921;-71
2023/07/11 08:31:15;;;;;;;;;;;26.90;99.90;;;;;;5042515;28;19944;-69
2023/07/11 08:33:42;;;;;;;;;;;26.90;99.90;;;;;;5043031;28;19921;-69
2023/07/11 08:36:09;;;;;;;;;;;27.00;99.90;;;;;;5043309;28;19928;-70
2023/07/11 08:38:35;;;;;;;;;;;27.10;99.90;;;;;;5043508;28;19921;-70
2023/07/11 08:41:09;;;;;;;;;;;27.20;99.90;;;;;;5042388;28;19984;-70
2023/07/11 08:43:36;;;;;;;;;;;27.30;99.90;;;;;;5043139;28;20276;-70
2023/07/11 08:46:05;;;;;;;;;;;27.50;99.90;;;;;;5043227;28;19985;-70
2023/07/11 08:48:36;;;;;;;;;;;27.50;99.90;;;;;;5043244;28;19927;-70
2023/07/11 08:51:04;;;;;;;;;;;27.60;99.90;;;;;;5042564;28;20102;-70
2023/07/11 08:53:33;;;;;;;;;;;27.60;99.90;;;;;;5043136;28;19921;-70
2023/07/11 08:56:08;;;;;;;;;;;27.70;99.90;;;;;;5042649;28;19927;-70
2023/07/11 08:58:37;;;;;;;;;;;27.70;99.90;;;;;;5043283;28;19928;-70
2023/07/11 09:01:11;;;;;;;;;;;27.80;99.90;;;;;;5042081;28;20205;-70
2023/07/11 09:03:42;;;;;;;;;;;27.90;99.90;;;;;;5043259;28;19929;-71
2023/07/11 09:06:12;;;;;;;;;;;28.00;99.90;;;;;;5042870;28;19921;-70
2023/07/11 09:08:42;;;;;;;;;;;28.10;99.90;;;;;;5040199;28;19992;-70
2023/07/11 09:11:12;;;;;;;;;;;28.20;99.90;;;;;;5040599;28;19929;-70
2023/07/11 09:13:56;;;;;;;;;;;28.20;99.90;;;;;;5042745;28;20239;-70
2023/07/11 09:16:32;;;;;;;;;;;28.20;99.90;;;;;;5035456;28;19987;-70
2023/07/11 09:19:04;;;;;;;;;;;28.30;99.90;;;;;;5033762;28;19921;-70
2023/07/11 09:21:37;;;;;;;;;;;28.30;99.90;;;;;;5042084;28;20000;-69
2023/07/11 09:24:10;;;;;;;;;;;28.50;99.90;;;;;;5042934;28;20278;-70
2023/07/11 09:26:41;;;;;;;;;;;28.50;99.90;;;;;;5042731;28;19921;-70
2023/07/11 09:29:08;;;;;;;;;;;28.50;99.90;;;;;;5042547;28;19921;-70
2023/07/11 09:31:38;;;;;;;;;;;28.50;99.90;;;;;;5042167;28;19927;-70
2023/07/11 09:34:13;;;;;;;;;;;28.60;99.90;;;;;;5042929;28;19964;-70
2023/07/11 09:36:49;;;;;;;;;;;28.60;99.90;;;;;;5042422;28;19960;-70
2023/07/11 09:39:17;;;;;;;;;;;28.80;99.90;;;;;;5042601;28;20247;-70
2023/07/11 09:41:47;;;;;;;;;;;29.00;99.90;;;;;;5041785;28;20220;-70
2023/07/11 09:44:14;;;;;;;;;;;29.10;99.90;;;;;;5043105;28;19921;-70
2023/07/11 09:46:41;;;;;;;;;;;29.10;99.90;;;;;;5046464;28;20065;-71
2023/07/11 09:49:12;;;;;;;;;;;29.20;99.90;;;;;;5046527;28;19948;-70
2023/07/11 09:51:43;;;;;;;;;;;29.30;99.90;;;;;;5044680;28;19995;-70
2023/07/11 09:54:16;;;;;;;;;;;29.50;99.90;;;;;;5046386;28;19927;-70
2023/07/11 09:56:43;;;;;;;;;;;29.50;99.90;;;;;;5046085;28;19928;-70
2023/07/11 09:59:12;;;;;;;;;;;29.60;99.90;;;;;;5045637;28;19952;-70
2023/07/11 10:01:39;;;;;;;;;;;29.60;99.90;;;;;;5045306;28;19992;-70
2023/07/11 10:04:06;;;;;;;;;;;29.70;99.90;;;;;;5046104;28;19988;-70
2023/07/11 10:06:37;;;;;;;;;;;29.80;99.90;;;;;;5045627;28;20119;-70
2023/07/11 10:09:15;;;;;;;;;;;29.90;99.90;;;;;;5043527;28;20251;-71
2023/07/11 10:11:42;;;;;;;;;;;30.10;99.90;;;;;;5025247;28;19921;-70
2023/07/11 10:14:15;;;;;;;;;;;30.10;99.90;;;;;;5026176;28;19984;-70
2023/07/11 10:16:42;;;;;;;;;;;30.20;99.90;;;;;;5030714;28;19943;-69
2023/07/11 10:19:13;;;;;;;;;;;30.30;99.90;;;;;;5045663;28;20263;-69
2023/07/11 10:21:43;;;;;;;;;;;30.40;99.90;;;;;;5045221;28;19929;-70
2023/07/11 10:24:15;;;;;;;;;;;30.50;99.40;;;;;;5045731;28;20135;-70
2023/07/11 10:26:41;;;;;;;;;;;30.70;99.90;;;;;;5045285;28;20116;-70
2023/07/11 10:29:12;;;;;;;;;;;30.80;98.70;;;;;;5045544;28;19921;-70
2023/07/11 10:31:39;;;;;;;;;;;30.90;99.40;;;;;;5044588;28;19964;-69
2023/07/11 10:34:13;;;;;;;;;;;31.00;98.80;;;;;;5045484;28;20240;-71
2023/07/11 10:36:45;;;;;;;;;;;31.00;98.50;;;;;;5044451;28;19929;-70
2023/07/11 10:39:14;;;;;;;;;;;31.00;98.00;;;;;;5024662;28;19921;-70
2023/07/11 10:41:44;;;;;;;;;;;31.10;98.40;;;;;;5024516;28;19956;-70
2023/07/11 10:44:12;;;;;;;;;;;31.10;97.30;;;;;;5025053;28;19992;-70
2023/07/11 10:46:42;;;;;;;;;;;31.30;97.40;;;;;;5025250;28;19922;-70
2023/07/11 10:49:12;;;;;;;;;;;31.40;98.00;;;;;;5045097;28;19921;-70
2023/07/11 10:51:42;;;;;;;;;;;31.50;98.20;;;;;;5043660;28;19921;-70
2023/07/11 10:54:13;;;;;;;;;;;31.60;97.60;;;;;;5044784;28;19921;-70
2023/07/11 10:56:41;;;;;;;;;;;31.70;97.20;;;;;;5042369;28;19988;-70
2023/07/11 10:59:09;;;;;;;;;;;31.70;97.00;;;;;;5044787;28;19928;-70
2023/07/11 11:01:40;;;;;;;;;;;31.80;97.30;;;;;;5044573;28;19988;-72
2023/07/11 11:04:11;;;;;;;;;;;32.00;96.20;;;;;;5045457;28;20112;-72
2023/07/11 11:06:45;;;;;;;;;;;32.10;95.70;;;;;;5045022;28;20180;-72
2023/07/11 11:09:17;;;;;;;;;;;32.20;95.60;;;;;;5025270;28;20225;-71
2023/07/11 11:11:48;;;;;;;;;;;32.40;95.80;;;;;;5022810;28;19988;-72
2023/07/11 11:14:17;;;;;;;;;;;32.50;95.10;;;;;;5036631;28;19921;-72
2023/07/11 11:16:52;;;;;;;;;;;32.60;95.10;;;;;;5044501;28;20128;-73
2023/07/11 11:19:30;;;;;;;;;;;32.70;95.20;;;;;;5044250;28;19921;-72
2023/07/11 11:22:00;;;;;;;;;;;32.70;95.00;;;;;;5042468;28;20212;-72
2023/07/11 11:24:38;;;;;;;;;;;32.80;94.20;;;;;;5044705;28;19921;-71
2023/07/11 11:27:10;;;;;;;;;;;32.80;94.70;;;;;;5042462;28;19984;-72
2023/07/11 11:29:42;;;;;;;;;;;32.90;94.10;;;;;;5044924;28;19921;-72
2023/07/11 11:32:16;;;;;;;;;;;33.00;93.70;;;;;;5043533;28;20389;-72
2023/07/11 11:34:49;;;;;;;;;;;33.10;93.90;;;;;;5044578;28;19988;-72
2023/07/11 11:37:26;;;;;;;;;;;33.20;93.60;;;;;;5043437;28;19999;-73
2023/07/11 11:39:59;;;;;;;;;;;33.30;93.80;;;;;;5040204;28;19928;-72
2023/07/11 11:42:30;;;;;;;;;;;33.40;92.70;;;;;;5046024;28;19981;-71
2023/07/11 11:44:58;;;;;;;;;;;33.50;92.80;;;;;;5044901;28;19989;-72
2023/07/11 11:47:26;;;;;;;;;;;33.70;92.80;;;;;;5039193;28;20120;-71
2023/07/11 11:49:53;;;;;;;;;;;33.80;92.50;;;;;;5024169;28;19928;-73
2023/07/11 11:52:21;;;;;;;;;;;34.10;92.30;;;;;;5023998;28;20011;-73
2023/07/11 11:54:48;;;;;;;;;;;34.20;91.80;;;;;;5030860;28;19921;-72
2023/07/11 11:57:20;;;;;;;;;;;34.40;91.70;;;;;;5038391;28;19963;-72
2023/07/11 11:59:46;;;;;;;;;;;34.50;91.40;;;;;;5044141;28;19921;-72
2023/07/11 12:02:16;;;;;;;;;;;34.50;90.60;;;;;;5043188;28;19963;-72
2023/07/11 12:05:00;;;;;;;;;;;34.30;90.30;;;;;;5043821;28;19980;-71
2023/07/11 12:07:34;;;;;;;;;;;34.30;91.00;;;;;;5040571;28;19963;-72
2023/07/11 12:10:09;;;;;;;;;;;34.30;90.60;;;;;;5043323;28;19928;-73
2023/07/11 12:12:50;;;;;;;;;;;34.40;90.10;;;;;;5031160;28;19922;-72
2023/07/11 12:15:22;;;;;;;;;;;34.60;90.20;;;;;;5023741;28;19984;-71
2023/07/11 12:17:50;;;;;;;;;;;34.70;89.90;;;;;;5024964;28;19921;-71
2023/07/11 12:20:20;;;;;;;;;;;34.80;90.30;;;;;;5029281;28;19932;-73
2023/07/11 12:23:06;;;;;;;;;;;35.00;90.40;;;;;;5039880;28;20212;-72
2023/07/11 12:25:32;;;;;;;;;;;34.90;89.60;;;;;;5023472;28;19928;-72
2023/07/11 12:28:01;;;;;;;;;;;35.00;90.00;;;;;;5028826;28;19921;-72
2023/07/11 12:30:34;;;;;;;;;;;35.20;89.00;;;;;;5042312;28;19929;-71
2023/07/11 12:33:19;;;;;;;;;;;35.30;88.30;;;;;;5039475;28;19956;-73
2023/07/11 12:35:46;;;;;;;;;;;35.30;87.30;;;;;;5040962;28;19987;-74
2023/07/11 12:38:15;;;;;;;;;;;35.30;88.00;;;;;;5043275;28;19921;-71
2023/07/11 12:40:46;;;;;;;;;;;35.50;86.50;;;;;;5042705;28;19953;-71
2023/07/11 12:43:17;;;;;;;;;;;35.60;84.60;;;;;;5024386;28;19952;-71
2023/07/11 12:45:48;;;;;;;;;;;35.80;85.50;;;;;;5027833;28;19960;-71
2023/07/11 12:48:16;;;;;;;;;;;35.90;84.00;;;;;;5042898;28;19984;-72
2023/07/11 12:50:45;;;;;;;;;;;36.10;85.70;;;;;;5042406;28;19921;-71
2023/07/11 12:53:12;;;;;;;;;;;36.30;84.80;;;;;;5043201;28;19925;-71
2023/07/11 12:55:41;;;;;;;;;;;36.20;82.80;;;;;;5034802;28;20117;-71
2023/07/11 12:58:15;;;;;;;;;;;35.90;82.70;;;;;;5022871;28;19939;-72
2023/07/11 13:00:43;;;;;;;;;;;35.50;82.80;;;;;;5022281;28;19983;-71
2023/07/11 13:03:24;;;;;;;;;;;35.10;83.60;;;;;;5023390;28;19992;-71
2023/07/11 13:05:54;;;;;;;;;;;35.00;84.40;;;;;;5040823;28;19980;-71
2023/07/11 13:08:21;;;;;;;;;;;35.20;85.10;;;;;;5042760;28;19921;-71
2023/07/11 13:10:51;;;;;;;;;;;35.40;84.00;;;;;;5041929;28;19944;-72
2023/07/11 13:13:18;;;;;;;;;;;35.60;83.40;;;;;;5043160;28;19957;-73
2023/07/11 13:15:45;;;;;;;;;;;35.50;82.50;;;;;;5042910;28;20267;-70
2023/07/11 13:18:30;;;;;;;;;;;35.40;83.10;;;;;;5042566;28;19931;-72
2023/07/11 13:20:58;;;;;;;;;;;35.40;83.10;;;;;;5046179;28;19921;-71
2023/07/11 13:23:26;;;;;;;;;;;35.70;83.40;;;;;;5046717;28;19921;-71
2023/07/11 13:25:53;;;;;;;;;;;35.90;82.70;;;;;;5046437;28;20169;-72
2023/07/11 13:28:22;;;;;;;;;;;36.20;81.90;;;;;;5046769;28;19963;-74
2023/07/11 13:30:55;;;;;;;;;;;36.00;82.10;;;;;;5045531;28;19984;-71
2023/07/11 13:33:21;;;;;;;;;;;36.20;83.30;;;;;;5046101;28;20235;-71
2023/07/11 13:35:52;;;;;;;;;;;36.40;81.50;;;;;;5032353;28;20267;-71
2023/07/11 13:38:20;;;;;;;;;;;36.70;81.20;;;;;;5033791;28;19921;-71
2023/07/11 13:40:46;;;;;;;;;;;36.70;80.00;;;;;;5045048;28;20094;-71
2023/07/11 13:43:16;;;;;;;;;;;36.80;80.00;;;;;;5046368;28;19952;-71
2023/07/11 13:45:44;;;;;;;;;;;37.00;79.60;;;;;;5049751;28;19920;-72
2023/07/11 13:48:13;;;;;;;;;;;37.30;79.70;;;;;;5046464;28;19921;-71
2023/07/11 13:50:40;;;;;;;;;;;37.40;78.30;;;;;;5045992;28;19921;-71
2023/07/11 13:53:13;;;;;;;;;;;37.30;78.40;;;;;;5046477;28;20000;-71
2023/07/11 13:55:44;;;;;;;;;;;37.30;78.20;;;;;;5046019;28;19920;-71
2023/07/11 13:58:10;;;;;;;;;;;37.20;78.00;;;;;;5044110;28;19963;-71
2023/07/11 14:00:38;;;;;;;;;;;37.20;78.20;;;;;;5044237;28;19963;-71
2023/07/11 14:03:06;;;;;;;;;;;37.30;78.70;;;;;;5046153;28;19984;-71
2023/07/11 14:05:33;;;;;;;;;;;37.50;78.30;;;;;;5045601;28;19988;-71
2023/07/11 14:08:01;;;;;;;;;;;37.60;78.90;;;;;;5046172;28;19920;-71
2023/07/11 14:10:30;;;;;;;;;;;37.80;76.90;;;;;;5042966;28;19921;-71
2023/07/11 14:12:58;;;;;;;;;;;37.90;75.00;;;;;;5046227;28;19921;-71
2023/07/11 14:15:26;;;;;;;;;;;38.10;75.90;;;;;;5045758;28;20163;-71
2023/07/11 14:17:54;;;;;;;;;;;38.10;75.90;;;;;;5045740;28;19921;-73
2023/07/11 14:20:23;;;;;;;;;;;38.10;76.10;;;;;;5044945;28;19920;-72
2023/07/11 14:22:50;;;;;;;;;;;38.30;74.70;;;;;;5045772;28;20194;-72